sensor_id;sensor_type;location;lat;lon;timestamp;pressure;altitude;pressure_sealevel;temperature;humidity
34124;BME280;13153;52.316;21.166;2023-06-01T00:01:53;100460.22;;;18.03;41.52
34124;BME280;13153;52.316;21.166;2023-06-01T00:04:19;100454.91;;;18.02;41.65
34124;BME280;13153;52.316;21.166;2023-06-01T00:06:45;100457.56;;;18.02;41.71
34124;BME280;13153;52.316;21.166;2023-06-01T00:09:11;100457.56;;;17.97;41.69
34124;BME280;13153;52.316;21.166;2023-06-01T00:11:37;100454.91;;;17.96;41.57
34124;BME280;13153;52.316;21.166;2023-06-01T00:14:03;100447.81;;;17.93;41.67
34124;BME280;13153;52.316;21.166;2023-06-01T00:16:29;100451.38;;;17.94;41.83
34124;BME280;13153;52.316;21.166;2023-06-01T00:18:58;100445.16;;;17.93;41.89
34124;BME280;13153;52.316;21.166;2023-06-01T00:21:27;100442.50;;;17.92;42.18
34124;BME280;13153;52.316;21.166;2023-06-01T00:23:54;100440.75;;;17.91;42.27
34124;BME280;13153;52.316;21.166;2023-06-01T00:26:20;100439.88;;;17.86;42.07
34124;BME280;13153;52.316;21.166;2023-06-01T00:28:46;100442.56;;;17.83;41.83
34124;BME280;13153;52.316;21.166;2023-06-01T00:31:12;100442.56;;;17.81;42.22
34124;BME280;13153;52.316;21.166;2023-06-01T00:33:38;100439.00;;;17.79;42.50
34124;BME280;13153;52.316;21.166;2023-06-01T00:36:04;100428.38;;;17.74;42.63
34124;BME280;13153;52.316;21.166;2023-06-01T00:38:29;100430.16;;;17.69;42.87
34124;BME280;13153;52.316;21.166;2023-06-01T00:40:55;100433.72;;;17.65;42.72
34124;BME280;13153;52.316;21.166;2023-06-01T00:43:21;100427.47;;;17.62;42.67
34124;BME280;13153;52.316;21.166;2023-06-01T00:45:47;100432.78;;;17.63;42.67
34124;BME280;13153;52.316;21.166;2023-06-01T00:48:15;100428.34;;;17.64;42.15
34124;BME280;13153;52.316;21.166;2023-06-01T00:50:42;100428.34;;;17.62;42.65
34124;BME280;13153;52.316;21.166;2023-06-01T00:53:16;100430.13;;;17.62;42.60
34124;BME280;13153;52.316;21.166;2023-06-01T00:55:43;100429.25;;;17.60;42.42
34124;BME280;13153;52.316;21.166;2023-06-01T00:58:09;100425.69;;;17.58;42.73
34124;BME280;13153;52.316;21.166;2023-06-01T01:00:36;100422.16;;;17.57;42.73
34124;BME280;13153;52.316;21.166;2023-06-01T01:03:04;100427.47;;;17.54;42.45
34124;BME280;13153;52.316;21.166;2023-06-01T01:05:33;100425.72;;;17.55;42.75
34124;BME280;13153;52.316;21.166;2023-06-01T01:11:26;100418.63;;;17.49;42.61
34124;BME280;13153;52.316;21.166;2023-06-01T01:14:30;100417.72;;;17.47;42.55
34124;BME280;13153;52.316;21.166;2023-06-01T01:20:19;100420.41;;;17.38;42.15
34124;BME280;13153;52.316;21.166;2023-06-01T01:26:34;100414.22;;;17.30;42.90
34124;BME280;13153;52.316;21.166;2023-06-01T01:29:09;100408.03;;;17.26;43.11
34124;BME280;13153;52.316;21.166;2023-06-01T01:31:39;100405.34;;;17.26;42.86
34124;BME280;13153;52.316;21.166;2023-06-01T01:34:08;100398.28;;;17.25;42.65
34124;BME280;13153;52.316;21.166;2023-06-01T01:36:35;100393.84;;;17.26;42.95
34124;BME280;13153;52.316;21.166;2023-06-01T01:39:03;100402.69;;;17.25;43.19
34124;BME280;13153;52.316;21.166;2023-06-01T01:41:31;100400.03;;;17.22;43.15
34124;BME280;13153;52.316;21.166;2023-06-01T01:43:57;100395.63;;;17.19;43.26
34124;BME280;13153;52.316;21.166;2023-06-01T01:46:44;100395.59;;;17.14;43.14
34124;BME280;13153;52.316;21.166;2023-06-01T01:49:30;100393.84;;;17.10;43.23
34124;BME280;13153;52.316;21.166;2023-06-01T01:52:39;100393.84;;;17.07;42.88
34124;BME280;13153;52.316;21.166;2023-06-01T01:55:10;100389.41;;;17.05;43.21
34124;BME280;13153;52.316;21.166;2023-06-01T01:57:38;100391.16;;;17.01;43.35
34124;BME280;13153;52.316;21.166;2023-06-01T02:00:08;100391.16;;;17.00;43.06
34124;BME280;13153;52.316;21.166;2023-06-01T02:02:34;100383.19;;;16.98;43.30
34124;BME280;13153;52.316;21.166;2023-06-01T02:05:00;100388.50;;;16.97;43.21
34124;BME280;13153;52.316;21.166;2023-06-01T02:07:26;100378.75;;;16.96;42.96
34124;BME280;13153;52.316;21.166;2023-06-01T02:09:52;100384.97;;;16.93;43.06
34124;BME280;13153;52.316;21.166;2023-06-01T02:12:17;100378.75;;;16.93;43.17
34124;BME280;13153;52.316;21.166;2023-06-01T02:14:43;100376.09;;;16.94;43.31
34124;BME280;13153;52.316;21.166;2023-06-01T02:17:09;100374.31;;;16.95;42.98
34124;BME280;13153;52.316;21.166;2023-06-01T02:19:35;100369.91;;;16.94;43.30
34124;BME280;13153;52.316;21.166;2023-06-01T02:22:01;100375.22;;;16.94;42.90
34124;BME280;13153;52.316;21.166;2023-06-01T02:24:26;100369.00;;;16.93;42.98
34124;BME280;13153;52.316;21.166;2023-06-01T02:26:53;100371.66;;;16.93;42.85
34124;BME280;13153;52.316;21.166;2023-06-01T02:29:20;100376.09;;;16.93;42.92
34124;BME280;13153;52.316;21.166;2023-06-01T02:31:50;100372.56;;;16.92;43.04
34124;BME280;13153;52.316;21.166;2023-06-01T02:34:18;100373.44;;;16.94;42.99
34124;BME280;13153;52.316;21.166;2023-06-01T02:36:43;100369.00;;;16.96;43.20
34124;BME280;13153;52.316;21.166;2023-06-01T02:39:10;100377.00;;;17.01;43.21
34124;BME280;13153;52.316;21.166;2023-06-01T02:41:36;100370.78;;;17.11;42.90
34124;BME280;13153;52.316;21.166;2023-06-01T02:44:01;100367.25;;;17.21;42.67
34124;BME280;13153;52.316;21.166;2023-06-01T02:46:28;100366.34;;;17.30;42.54
34124;BME280;13153;52.316;21.166;2023-06-01T02:48:53;100362.75;;;17.40;42.30
34124;BME280;13153;52.316;21.166;2023-06-01T02:51:19;100360.09;;;17.47;41.77
34124;BME280;13153;52.316;21.166;2023-06-01T02:53:45;100352.97;;;17.59;41.57
34124;BME280;13153;52.316;21.166;2023-06-01T02:56:14;100357.41;;;17.73;41.22
34124;BME280;13153;52.316;21.166;2023-06-01T02:58:41;100358.25;;;17.89;41.07
34124;BME280;13153;52.316;21.166;2023-06-01T03:01:08;100359.03;;;18.05;40.72
34124;BME280;13153;52.316;21.166;2023-06-01T03:03:38;100352.72;;;18.26;40.27
34124;BME280;13153;52.316;21.166;2023-06-01T03:06:04;100348.22;;;18.41;39.59
34124;BME280;13153;52.316;21.166;2023-06-01T03:08:32;100353.41;;;18.60;38.94
34124;BME280;13153;52.316;21.166;2023-06-01T03:10:58;100346.19;;;18.80;39.14
34124;BME280;13153;52.316;21.166;2023-06-01T03:13:24;100350.47;;;18.99;38.37
34124;BME280;13153;52.316;21.166;2023-06-01T03:15:49;100349.41;;;19.16;38.17
34124;BME280;13153;52.316;21.166;2023-06-01T03:18:16;100358.09;;;19.37;37.57
34124;BME280;13153;52.316;21.166;2023-06-01T03:20:42;100357.00;;;19.61;37.34
34124;BME280;13153;52.316;21.166;2023-06-01T03:23:08;100348.72;;;19.84;37.07
34124;BME280;13153;52.316;21.166;2023-06-01T03:25:34;100356.38;;;20.13;36.83
34124;BME280;13153;52.316;21.166;2023-06-01T03:28:00;100347.09;;;20.41;36.63
34124;BME280;13153;52.316;21.166;2023-06-01T03:30:26;100344.91;;;20.69;35.96
34124;BME280;13153;52.316;21.166;2023-06-01T03:32:52;100334.66;;;20.94;35.81
34124;BME280;13153;52.316;21.166;2023-06-01T03:38:02;100347.03;;;21.52;34.55
34124;BME280;13153;52.316;21.166;2023-06-01T03:40:27;100342.84;;;21.84;34.39
34124;BME280;13153;52.316;21.166;2023-06-01T03:42:53;100335.78;;;22.23;33.78
34124;BME280;13153;52.316;21.166;2023-06-01T03:45:19;100334.16;;;22.54;33.05
34124;BME280;13153;52.316;21.166;2023-06-01T03:47:44;100341.56;;;22.83;32.71
34124;BME280;13153;52.316;21.166;2023-06-01T03:50:11;100337.81;;;23.24;32.24
34124;BME280;13153;52.316;21.166;2023-06-01T03:52:37;100343.38;;;23.83;31.46
34124;BME280;13153;52.316;21.166;2023-06-01T03:55:05;100338.66;;;24.22;30.42
34124;BME280;13153;52.316;21.166;2023-06-01T03:57:34;100338.88;;;24.44;30.66
34124;BME280;13153;52.316;21.166;2023-06-01T04:00:02;100335.84;;;24.55;30.37
34124;BME280;13153;52.316;21.166;2023-06-01T04:03:03;100328.53;;;24.86;29.65
34124;BME280;13153;52.316;21.166;2023-06-01T04:05:33;100339.09;;;25.20;30.06
34124;BME280;13153;52.316;21.166;2023-06-01T04:07:59;100341.34;;;25.57;29.24
34124;BME280;13153;52.316;21.166;2023-06-01T04:10:25;100347.81;;;26.02;28.65
34124;BME280;13153;52.316;21.166;2023-06-01T04:12:51;100335.53;;;26.41;27.89
34124;BME280;13153;52.316;21.166;2023-06-01T04:15:19;100340.44;;;26.75;27.68
34124;BME280;13153;52.316;21.166;2023-06-01T04:17:46;100335.72;;;27.24;27.63
34124;BME280;13153;52.316;21.166;2023-06-01T04:20:15;100333.81;;;27.68;27.24
34124;BME280;13153;52.316;21.166;2023-06-01T04:22:43;100331.53;;;28.17;26.82
34124;BME280;13153;52.316;21.166;2023-06-01T04:25:11;100327.31;;;28.49;26.39
34124;BME280;13153;52.316;21.166;2023-06-01T04:27:46;100327.81;;;28.76;26.19
34124;BME280;13153;52.316;21.166;2023-06-01T04:30:14;100328.38;;;29.18;25.29
34124;BME280;13153;52.316;21.166;2023-06-01T04:32:41;100325.34;;;30.09;24.76
34124;BME280;13153;52.316;21.166;2023-06-01T04:35:10;100327.66;;;30.33;24.08
34124;BME280;13153;52.316;21.166;2023-06-01T04:37:38;100326.63;;;30.35;24.48
34124;BME280;13153;52.316;21.166;2023-06-01T04:40:09;100321.91;;;30.70;24.03
34124;BME280;13153;52.316;21.166;2023-06-01T04:42:40;100317.88;;;31.23;23.39
34124;BME280;13153;52.316;21.166;2023-06-01T04:45:15;100319.63;;;32.27;22.25
34124;BME280;13153;52.316;21.166;2023-06-01T04:47:41;100321.69;;;32.50;21.61
34124;BME280;13153;52.316;21.166;2023-06-01T04:50:11;100329.13;;;32.89;20.99
34124;BME280;13153;52.316;21.166;2023-06-01T04:52:39;100326.31;;;33.83;19.76
34124;BME280;13153;52.316;21.166;2023-06-01T04:55:07;100327.13;;;35.07;18.70
34124;BME280;13153;52.316;21.166;2023-06-01T04:57:34;100326.28;;;35.88;17.73
34124;BME280;13153;52.316;21.166;2023-06-01T05:00:06;100320.81;;;36.77;16.88
34124;BME280;13153;52.316;21.166;2023-06-01T05:02:37;100322.84;;;37.39;16.58
34124;BME280;13153;52.316;21.166;2023-06-01T05:05:05;100318.13;;;38.13;16.55
34124;BME280;13153;52.316;21.166;2023-06-01T05:07:31;100322.09;;;38.60;15.17
34124;BME280;13153;52.316;21.166;2023-06-01T05:09:57;100315.09;;;39.16;14.67
34124;BME280;13153;52.316;21.166;2023-06-01T05:12:23;100323.53;;;40.00;15.04
34124;BME280;13153;52.316;21.166;2023-06-01T05:14:48;100310.22;;;40.59;14.27
34124;BME280;13153;52.316;21.166;2023-06-01T05:17:15;100307.28;;;41.06;14.02
34124;BME280;13153;52.316;21.166;2023-06-01T05:19:41;100311.66;;;41.44;13.47
34124;BME280;13153;52.316;21.166;2023-06-01T05:22:06;100305.44;;;41.68;12.92
34124;BME280;13153;52.316;21.166;2023-06-01T05:24:32;100304.91;;;41.91;12.66
34124;BME280;13153;52.316;21.166;2023-06-01T05:26:58;100312.00;;;42.19;12.79
34124;BME280;13153;52.316;21.166;2023-06-01T05:29:24;100312.44;;;42.40;12.38
34124;BME280;13153;52.316;21.166;2023-06-01T05:31:50;100305.13;;;42.65;12.06
34124;BME280;13153;52.316;21.166;2023-06-01T05:34:16;100307.06;;;42.81;12.30
34124;BME280;13153;52.316;21.166;2023-06-01T05:36:42;100304.56;;;43.20;12.33
34124;BME280;13153;52.316;21.166;2023-06-01T05:39:07;100302.34;;;43.32;12.13
34124;BME280;13153;52.316;21.166;2023-06-01T05:41:33;100306.31;;;43.37;12.01
34124;BME280;13153;52.316;21.166;2023-06-01T05:43:59;100313.41;;;43.56;11.68
34124;BME280;13153;52.316;21.166;2023-06-01T05:46:25;100312.72;;;43.54;11.78
34124;BME280;13153;52.316;21.166;2023-06-01T05:48:51;100311.16;;;43.43;11.70
34124;BME280;13153;52.316;21.166;2023-06-01T05:51:17;100312.19;;;43.34;12.13
34124;BME280;13153;52.316;21.166;2023-06-01T05:53:43;100304.09;;;43.25;11.42
34124;BME280;13153;52.316;21.166;2023-06-01T05:56:09;100305.25;;;43.14;12.23
34124;BME280;13153;52.316;21.166;2023-06-01T05:58:35;100303.34;;;43.23;11.94
34124;BME280;13153;52.316;21.166;2023-06-01T06:01:01;100309.59;;;43.16;11.85
34124;BME280;13153;52.316;21.166;2023-06-01T06:03:27;100295.22;;;43.13;11.98
34124;BME280;13153;52.316;21.166;2023-06-01T06:05:54;100289.81;;;42.95;12.34
34124;BME280;13153;52.316;21.166;2023-06-01T06:08:20;100297.44;;;42.93;12.18
34124;BME280;13153;52.316;21.166;2023-06-01T06:10:46;100307.28;;;42.88;12.47
34124;BME280;13153;52.316;21.166;2023-06-01T06:13:14;100300.47;;;42.82;12.29
34124;BME280;13153;52.316;21.166;2023-06-01T06:15:40;100297.94;;;42.89;12.59
34124;BME280;13153;52.316;21.166;2023-06-01T06:18:05;100292.88;;;42.68;12.60
34124;BME280;13153;52.316;21.166;2023-06-01T06:20:31;100298.22;;;42.61;13.00
34124;BME280;13153;52.316;21.166;2023-06-01T06:22:57;100289.06;;;42.77;12.29
34124;BME280;13153;52.316;21.166;2023-06-01T06:25:23;100293.63;;;42.94;12.55
34124;BME280;13153;52.316;21.166;2023-06-01T06:27:48;100298.19;;;43.28;12.39
34124;BME280;13153;52.316;21.166;2023-06-01T06:30:14;100290.03;;;43.34;12.19
34124;BME280;13153;52.316;21.166;2023-06-01T06:32:41;100293.31;;;43.46;11.56
34124;BME280;13153;52.316;21.166;2023-06-01T06:35:08;100292.28;;;43.55;11.88
34124;BME280;13153;52.316;21.166;2023-06-01T06:37:39;100295.03;;;43.79;11.99
34124;BME280;13153;52.316;21.166;2023-06-01T06:40:06;100292.03;;;44.05;12.22
34124;BME280;13153;52.316;21.166;2023-06-01T06:42:32;100291.41;;;44.42;12.16
34124;BME280;13153;52.316;21.166;2023-06-01T06:44:58;100298.50;;;44.76;11.84
34124;BME280;13153;52.316;21.166;2023-06-01T06:47:23;100290.66;;;44.88;11.27
34124;BME280;13153;52.316;21.166;2023-06-01T06:49:50;100291.00;;;45.07;11.16
34124;BME280;13153;52.316;21.166;2023-06-01T06:52:17;100293.50;;;45.25;11.21
34124;BME280;13153;52.316;21.166;2023-06-01T06:54:43;100290.34;;;45.28;10.70
34124;BME280;13153;52.316;21.166;2023-06-01T06:57:09;100294.03;;;45.44;11.16
34124;BME280;13153;52.316;21.166;2023-06-01T06:59:36;100289.78;;;45.70;11.04
34124;BME280;13153;52.316;21.166;2023-06-01T07:02:02;100287.34;;;45.90;10.71
34124;BME280;13153;52.316;21.166;2023-06-01T07:04:29;100281.13;;;46.03;10.35
34124;BME280;13153;52.316;21.166;2023-06-01T07:06:56;100273.38;;;46.13;10.44
34124;BME280;13153;52.316;21.166;2023-06-01T07:09:22;100280.94;;;46.19;10.38
34124;BME280;13153;52.316;21.166;2023-06-01T07:11:47;100279.38;;;46.31;10.40
34124;BME280;13153;52.316;21.166;2023-06-01T07:14:14;100272.06;;;46.30;10.67
34124;BME280;13153;52.316;21.166;2023-06-01T07:16:40;100267.56;;;46.44;10.67
34124;BME280;13153;52.316;21.166;2023-06-01T07:19:07;100268.44;;;46.45;10.33
34124;BME280;13153;52.316;21.166;2023-06-01T07:21:33;100263.53;;;46.32;10.36
34124;BME280;13153;52.316;21.166;2023-06-01T07:23:59;100261.91;;;46.23;10.39
34124;BME280;13153;52.316;21.166;2023-06-01T07:26:25;100266.34;;;46.17;9.98
34124;BME280;13153;52.316;21.166;2023-06-01T07:28:53;100263.38;;;46.19;9.89
34124;BME280;13153;52.316;21.166;2023-06-01T07:31:20;100261.19;;;46.14;10.24
34124;BME280;13153;52.316;21.166;2023-06-01T07:33:47;100258.69;;;46.19;10.09
34124;BME280;13153;52.316;21.166;2023-06-01T07:36:12;100257.09;;;46.31;10.61
34124;BME280;13153;52.316;21.166;2023-06-01T07:38:40;100255.00;;;46.33;10.35
34124;BME280;13153;52.316;21.166;2023-06-01T07:41:08;100256.16;;;46.24;10.42
34124;BME280;13153;52.316;21.166;2023-06-01T07:43:36;100259.06;;;46.16;10.17
34124;BME280;13153;52.316;21.166;2023-06-01T07:46:03;100247.16;;;46.08;10.44
34124;BME280;13153;52.316;21.166;2023-06-01T07:48:28;100246.94;;;45.80;10.56
34124;BME280;13153;52.316;21.166;2023-06-01T07:50:54;100244.41;;;45.55;10.78
34124;BME280;13153;52.316;21.166;2023-06-01T07:53:21;100247.47;;;45.46;11.57
34124;BME280;13153;52.316;21.166;2023-06-01T07:55:46;100239.53;;;45.20;10.93
34124;BME280;13153;52.316;21.166;2023-06-01T07:58:14;100241.41;;;44.82;11.28
34124;BME280;13153;52.316;21.166;2023-06-01T08:00:40;100234.88;;;44.35;11.83
34124;BME280;13153;52.316;21.166;2023-06-01T08:03:06;100235.75;;;43.89;11.43
34124;BME280;13153;52.316;21.166;2023-06-01T08:05:36;100226.47;;;43.16;11.77
34124;BME280;13153;52.316;21.166;2023-06-01T08:08:02;100225.06;;;42.22;12.34
34124;BME280;13153;52.316;21.166;2023-06-01T08:10:28;100213.63;;;41.13;13.32
34124;BME280;13153;52.316;21.166;2023-06-01T08:12:54;100222.41;;;40.00;14.28
34124;BME280;13153;52.316;21.166;2023-06-01T08:15:23;100217.00;;;39.05;14.43
34124;BME280;13153;52.316;21.166;2023-06-01T08:17:51;100215.25;;;38.16;15.30
34124;BME280;13153;52.316;21.166;2023-06-01T08:20:18;100205.84;;;37.48;15.42
34124;BME280;13153;52.316;21.166;2023-06-01T08:22:51;100202.22;;;36.85;15.90
34124;BME280;13153;52.316;21.166;2023-06-01T08:25:17;100209.31;;;36.44;16.37
34124;BME280;13153;52.316;21.166;2023-06-01T08:27:46;100203.16;;;36.09;17.07
34124;BME280;13153;52.316;21.166;2023-06-01T08:30:13;100200.44;;;35.75;17.68
34124;BME280;13153;52.316;21.166;2023-06-01T08:32:38;100196.06;;;35.50;18.07
34124;BME280;13153;52.316;21.166;2023-06-01T08:35:08;100199.50;;;35.30;18.20
34124;BME280;13153;52.316;21.166;2023-06-01T08:37:35;100204.91;;;35.07;17.61
34124;BME280;13153;52.316;21.166;2023-06-01T08:40:02;100198.72;;;34.82;18.04
34124;BME280;13153;52.316;21.166;2023-06-01T08:42:48;100196.66;;;34.61;18.51
34124;BME280;13153;52.316;21.166;2023-06-01T08:45:17;100183.03;;;34.49;18.61
34124;BME280;13153;52.316;21.166;2023-06-01T08:47:46;100180.91;;;34.28;18.97
34124;BME280;13153;52.316;21.166;2023-06-01T08:50:13;100178.22;;;34.16;19.92
34124;BME280;13153;52.316;21.166;2023-06-01T08:52:43;100179.66;;;34.08;19.28
34124;BME280;13153;52.316;21.166;2023-06-01T08:55:09;100170.97;;;34.03;19.04
34124;BME280;13153;52.316;21.166;2023-06-01T08:57:35;100167.06;;;33.95;19.01
34124;BME280;13153;52.316;21.166;2023-06-01T09:00:01;100160.75;;;33.82;19.55
34124;BME280;13153;52.316;21.166;2023-06-01T09:02:28;100164.00;;;33.74;19.83
34124;BME280;13153;52.316;21.166;2023-06-01T09:04:54;100156.59;;;33.63;19.73
34124;BME280;13153;52.316;21.166;2023-06-01T09:07:20;100159.13;;;33.54;20.32
34124;BME280;13153;52.316;21.166;2023-06-01T09:09:46;100159.59;;;33.47;20.18
34124;BME280;13153;52.316;21.166;2023-06-01T09:12:24;100154.69;;;33.40;20.39
34124;BME280;13153;52.316;21.166;2023-06-01T09:15:15;100152.50;;;33.32;20.71
34124;BME280;13153;52.316;21.166;2023-06-01T09:18:04;100147.69;;;33.23;21.02
34124;BME280;13153;52.316;21.166;2023-06-01T09:20:30;100146.38;;;33.16;21.19
34124;BME280;13153;52.316;21.166;2023-06-01T09:22:58;100147.22;;;33.04;20.42
34124;BME280;13153;52.316;21.166;2023-06-01T09:25:34;100140.69;;;32.94;20.99
34124;BME280;13153;52.316;21.166;2023-06-01T09:28:01;100144.94;;;32.85;21.11
34124;BME280;13153;52.316;21.166;2023-06-01T09:30:42;100148.09;;;32.79;21.60
34124;BME280;13153;52.316;21.166;2023-06-01T09:33:15;100141.28;;;32.72;21.25
34124;BME280;13153;52.316;21.166;2023-06-01T09:35:49;100143.00;;;32.60;21.10
34124;BME280;13153;52.316;21.166;2023-06-01T09:38:26;100145.50;;;32.50;20.88
34124;BME280;13153;52.316;21.166;2023-06-01T09:41:03;100135.97;;;32.43;22.00
34124;BME280;13153;52.316;21.166;2023-06-01T09:43:29;100130.31;;;32.34;21.11
34124;BME280;13153;52.316;21.166;2023-06-01T09:46:11;100131.09;;;32.22;21.50
34124;BME280;13153;52.316;21.166;2023-06-01T09:48:40;100129.88;;;32.13;22.19
34124;BME280;13153;52.316;21.166;2023-06-01T09:51:24;100121.03;;;32.09;22.29
34124;BME280;13153;52.316;21.166;2023-06-01T09:53:54;100125.13;;;32.02;22.56
34124;BME280;13153;52.316;21.166;2023-06-01T09:56:20;100119.84;;;31.87;21.92
34124;BME280;13153;52.316;21.166;2023-06-01T09:58:46;100120.34;;;31.79;22.52
34124;BME280;13153;52.316;21.166;2023-06-01T10:01:14;100111.63;;;31.74;22.63
34124;BME280;13153;52.316;21.166;2023-06-01T10:03:42;100110.25;;;31.67;21.95
34124;BME280;13153;52.316;21.166;2023-06-01T10:06:11;100111.63;;;31.60;22.14
34124;BME280;13153;52.316;21.166;2023-06-01T10:08:38;100119.19;;;31.55;21.85
34124;BME280;13153;52.316;21.166;2023-06-01T10:11:04;100126.38;;;31.56;22.35
34124;BME280;13153;52.316;21.166;2023-06-01T10:13:31;100114.16;;;31.48;21.84
34124;BME280;13153;52.316;21.166;2023-06-01T10:15:57;100108.53;;;31.37;22.12
34124;BME280;13153;52.316;21.166;2023-06-01T10:18:22;100106.00;;;31.34;22.57
34124;BME280;13153;52.316;21.166;2023-06-01T10:20:50;100115.31;;;31.30;22.36
34124;BME280;13153;52.316;21.166;2023-06-01T10:23:16;100111.16;;;31.25;22.43
34124;BME280;13153;52.316;21.166;2023-06-01T10:25:47;100103.69;;;31.14;22.26
34124;BME280;13153;52.316;21.166;2023-06-01T10:28:17;100104.06;;;31.08;22.86
34124;BME280;13153;52.316;21.166;2023-06-01T10:30:43;100099.69;;;31.05;22.23
34124;BME280;13153;52.316;21.166;2023-06-01T10:33:10;100094.63;;;30.99;23.11
34124;BME280;13153;52.316;21.166;2023-06-01T10:40:39;100099.28;;;31.11;23.80
34124;BME280;13153;52.316;21.166;2023-06-01T10:43:06;100095.91;;;31.08;23.35
34124;BME280;13153;52.316;21.166;2023-06-01T10:48:05;100094.25;;;31.05;22.84
34124;BME280;13153;52.316;21.166;2023-06-01T10:50:33;100087.16;;;31.03;23.53
34124;BME280;13153;52.316;21.166;2023-06-01T10:53:28;100088.13;;;31.02;24.71
34124;BME280;13153;52.316;21.166;2023-06-01T10:56:26;100068.22;;;31.01;24.47
34124;BME280;13153;52.316;21.166;2023-06-01T11:01:46;100075.88;;;30.95;24.53
34124;BME280;13153;52.316;21.166;2023-06-01T11:04:13;100065.41;;;30.88;24.02
34124;BME280;13153;52.316;21.166;2023-06-01T11:06:41;100061.69;;;30.75;23.18
34124;BME280;13153;52.316;21.166;2023-06-01T11:09:12;100052.75;;;30.73;23.39
34124;BME280;13153;52.316;21.166;2023-06-01T11:14:26;100052.28;;;30.81;24.56
34124;BME280;13153;52.316;21.166;2023-06-01T11:17:25;100051.22;;;30.83;24.46
34124;BME280;13153;52.316;21.166;2023-06-01T11:19:58;100041.91;;;30.87;24.63
34124;BME280;13153;52.316;21.166;2023-06-01T11:22:24;100046.84;;;30.81;23.61
34124;BME280;13153;52.316;21.166;2023-06-01T11:24:51;100039.69;;;30.80;24.12
34124;BME280;13153;52.316;21.166;2023-06-01T11:27:20;100039.97;;;30.75;23.50
34124;BME280;13153;52.316;21.166;2023-06-01T11:29:49;100044.53;;;30.75;23.94
34124;BME280;13153;52.316;21.166;2023-06-01T11:32:15;100042.59;;;30.77;24.69
34124;BME280;13153;52.316;21.166;2023-06-01T11:34:47;100039.78;;;30.78;24.20
34124;BME280;13153;52.316;21.166;2023-06-01T11:37:19;100038.50;;;30.70;23.05
34124;BME280;13153;52.316;21.166;2023-06-01T11:39:46;100038.78;;;30.65;23.15
34124;BME280;13153;52.316;21.166;2023-06-01T11:42:16;100039.75;;;30.64;23.57
34124;BME280;13153;52.316;21.166;2023-06-01T11:44:57;100033.25;;;30.67;23.62
34124;BME280;13153;52.316;21.166;2023-06-01T11:47:28;100033.06;;;30.70;24.29
34124;BME280;13153;52.316;21.166;2023-06-01T11:49:55;100021.22;;;30.71;23.92
34124;BME280;13153;52.316;21.166;2023-06-01T11:52:21;100013.06;;;30.71;24.48
34124;BME280;13153;52.316;21.166;2023-06-01T11:54:48;100009.78;;;30.66;23.33
34124;BME280;13153;52.316;21.166;2023-06-01T11:57:16;100010.84;;;30.63;23.67
34124;BME280;13153;52.316;21.166;2023-06-01T11:59:47;100001.81;;;30.63;23.47
34124;BME280;13153;52.316;21.166;2023-06-01T12:02:24;100007.06;;;30.66;24.39
34124;BME280;13153;52.316;21.166;2023-06-01T12:04:57;100001.25;;;30.58;23.21
34124;BME280;13153;52.316;21.166;2023-06-01T12:07:25;100007.91;;;30.52;23.86
34124;BME280;13153;52.316;21.166;2023-06-01T12:09:55;100001.69;;;30.50;24.57
34124;BME280;13153;52.316;21.166;2023-06-01T12:12:23;99997.16;;;30.50;24.92
34124;BME280;13153;52.316;21.166;2023-06-01T12:14:50;99988.91;;;30.52;24.53
34124;BME280;13153;52.316;21.166;2023-06-01T12:17:17;99987.84;;;30.54;24.21
34124;BME280;13153;52.316;21.166;2023-06-01T12:19:50;99996.00;;;30.54;23.57
34124;BME280;13153;52.316;21.166;2023-06-01T12:22:17;99990.56;;;30.54;23.50
34124;BME280;13153;52.316;21.166;2023-06-01T12:24:44;99987.94;;;30.53;23.31
34124;BME280;13153;52.316;21.166;2023-06-01T12:27:16;99979.78;;;30.53;23.92
34124;BME280;13153;52.316;21.166;2023-06-01T12:29:45;99982.31;;;30.56;23.14
34124;BME280;13153;52.316;21.166;2023-06-01T12:32:14;99979.44;;;30.59;23.24
34124;BME280;13153;52.316;21.166;2023-06-01T12:34:43;99980.22;;;30.61;23.21
34124;BME280;13153;52.316;21.166;2023-06-01T12:37:18;99975.53;;;30.63;22.61
34124;BME280;13153;52.316;21.166;2023-06-01T12:39:53;99967.28;;;30.65;22.83
34124;BME280;13153;52.316;21.166;2023-06-01T12:42:32;99976.31;;;30.65;22.74
34124;BME280;13153;52.316;21.166;2023-06-01T12:44:59;99974.78;;;30.61;23.33
34124;BME280;13153;52.316;21.166;2023-06-01T12:47:25;99967.38;;;30.63;23.95
34124;BME280;13153;52.316;21.166;2023-06-01T12:50:09;99970.78;;;30.67;23.65
34124;BME280;13153;52.316;21.166;2023-06-01T12:52:37;99960.78;;;30.67;24.19
34124;BME280;13153;52.316;21.166;2023-06-01T12:55:03;99959.81;;;30.68;24.00
34124;BME280;13153;52.316;21.166;2023-06-01T12:57:31;99943.72;;;30.65;23.57
34124;BME280;13153;52.316;21.166;2023-06-01T12:59:57;99950.00;;;30.66;24.24
34124;BME280;13153;52.316;21.166;2023-06-01T13:02:24;99957.09;;;30.68;23.93
34124;BME280;13153;52.316;21.166;2023-06-01T13:04:50;99955.44;;;30.66;22.86
34124;BME280;13153;52.316;21.166;2023-06-01T13:07:16;99943.72;;;30.65;22.97
34124;BME280;13153;52.316;21.166;2023-06-01T13:09:42;99936.34;;;30.67;23.38
34124;BME280;13153;52.316;21.166;2023-06-01T13:12:08;99941.69;;;30.69;23.91
34124;BME280;13153;52.316;21.166;2023-06-01T13:14:36;99938.84;;;30.70;23.31